aviador You're here:

OICI Decoded Metar

ILAM in IRAN
Report Time2018-07-22 16:00:00
UTC Time2018-07-22 16:20:45
Flight Rules vfr VFR
Wind270° at 10 kt
W.Decomp.*RWY 32: 5.9 kt HW 8.1 kt LCW
W.Rank270° ranks 12
Current wind is above 270° avg. (7.9)
Visibility9999 m
Phenomena:N/A
Clouds:N/A
Expected CloudBase > 9,200 ft AGL from Temp-Dew spread
CeilingNone
Temp29°C (ISA +23)
Dew Point06°C (23% RH)
Heat Index27.6°C
AAT24.4°C
QNH1009 hPa
Density Alt7,247 ft
Elevation4,403 ft
Report Wrong Elevation
Raw Report
METAR OICI 221600Z 27010KT CAVOK 29/06 Q1009 A2980=

Extra information for OICI:More info

Metar Taf Metar & Taf Last 4 Metars F.Rules Stats Wind Profile Meteogram Temp Stats Airport Information Weather charts Add Link Nearby VenuesMetar ALERT Operation Metar Decoded Social comments